FABL/BFN METAR and TAF weather

Enter ICAO airport designator
Station Type Date Time Source
FABL METAR 2019/10/19 07:00 UTC NOAA

FABL 190700Z 01006KT 320V070 CAVOK 27/06 Q1020 NOSIG


Station Type Date Time Source
FABL Decoded METAR 2019/10/19 07:00 UTC NOAA

Bloemfontein, Bloemfontein Airport, South Africa (FABL) 29-06S 026-18E 1400M
Oct 19, 2019 - 03:00 AM EDT / 2019.10.19 0700 UTC
Wind: from the N (010 degrees) at 7 MPH (6 KT) (direction variable):0
Visibility: greater than 7 mile(s):0
Temperature: 80 F (27 C)
Dew Point: 42 F (6 C)
Relative Humidity: 26%
Pressure (altimeter): 30.12 in. Hg (1020 hPa)
ob: FABL 190700Z 01006KT 320V070 CAVOK 27/06 Q1020 NOSIG
cycle: 7

Station Type Date Time Source
FABL TAF 2019/10/19 06:00 UTC NOAA

TAF FABL 190400Z 1906/2006 VRB03KT CAVOK TX34/1912Z TN15/2004Z
BECMG 1908/1910 27008KT
BECMG 1920/1922 VRB03KT

Example: see airport list